Main page
METAR-TAF:

METAR-TAF

Airports :

Pécs-Pogány International Airport

Pécs, Hungary

latitude: 46-06N, longitude: 018-14E, elevation: 201 m

Current weather observation

The report was made 2 hours and 25 minutes ago, at 16:45 UTC
Wind 3 kt from the Southwest
Temperature 15°C
Humidity 63%
Pressure 1026 hPa
Visibility 10 km or more
Scattered clouds at a height of 4300 ft

METAR: LHPP 131645Z 23003KT 9999 SCT043 15/08 Q1026

Time: 20:10 (19:10 UTC)

Forecast

The report was made 4 hours and 55 minutes ago, at 14:15 UTC
Forecast valid from 13 at 15 UTC to 13 at 24 UTC
Wind 4 kt from the South
Visibility 10 km or more
Scattered clouds at a height of 3300 ft
Broken clouds at a height of 6000 ft
Becoming
from 13 at 15 UTC to 13 at 18 UTC
Wind 4 kt from the West
Visibility 10 km or more
no clouds below 1500 m and no cumulonimbus
Becoming
from 13 at 18 UTC to 13 at 21 UTC
Wind 10 kt from the North/Northwest

TAF: LHPP 131415Z 1315/1324 17004KT 9999 SCT033 BKN060 BECMG 1315/1318 26004KT CAVOK BECMG 1318/1321 34010KT

Weather observations and forecasts of more than 4000 airports (METAR and TAF reports).

The available stations are represented by yellow and red dots on the map.

Hover mouse over dot to see the name of the station.

Then click to see weather observations and forecasts.

To change the map : click on the green buttons with a black cross to zoom in, on the green button with a dash to zoom out, or on the green arrows for adjacent maps.


METAR-TAF: